| time (UTC) | temp F | wind direction | speed MPH | gust MPH | rain 1hr in | rain 24hr in | rain mn in | humidity % | barometer mb |
| 20260502223037 | 64 | 254 | 5.0 | 12.0 | 0.00 | 0.00 | 0.00 | 32 | 1013.2 |
| 20260502221536 | 64 | 230 | 4.0 | 15.0 | 0.00 | 0.00 | 0.00 | 32 | 1013.3 |
| 20260502220035 | 64 | 200 | 7.0 | 22.0 | 0.00 | 0.00 | 0.00 | 31 | 1013.3 |
| 20260502214533 | 64 | 240 | 9.0 | 34.0 | 0.00 | 0.00 | 0.00 | 31 | 1013.7 |
| 20260502213002 | 65 | 238 | 10.0 | 22.0 | 0.00 | 0.00 | 0.00 | 31 | 1013.9 |
| 20260502211601 | 65 | 233 | 11.0 | 29.0 | 0.00 | 0.00 | 0.00 | 31 | 1014.1 |
| 20260502210055 | 64 | 204 | 14.0 | 32.0 | 0.00 | 0.00 | 0.00 | 32 | 1014.3 |
| 20260502204602 | 64 | 237 | 6.0 | 37.0 | 0.00 | 0.00 | 0.00 | 32 | 1014.6 |
| 20260502203051 | 64 | 200 | 15.0 | 31.0 | 0.00 | 0.00 | 0.00 | 30 | 1015.0 |
| 20260502201547 | 63 | 180 | 5.0 | 19.0 | 0.00 | 0.00 | 0.00 | 33 | 1015.4 |
| 20260502200046 | 63 | 239 | 10.0 | 28.0 | 0.00 | 0.00 | 0.00 | 32 | 1015.6 |
| 20260502194541 | 62 | 202 | 14.0 | 26.0 | 0.00 | 0.00 | 0.00 | 32 | 1016.1 |
| 20260502193036 | 61 | 192 | 8.0 | 23.0 | 0.00 | 0.00 | 0.00 | 33 | 1016.4 |
| 20260502191532 | 60 | 269 | 8.0 | 22.0 | 0.00 | 0.00 | 0.00 | 32 | 1016.7 |
| 20260502190103 | 60 | 230 | 5.0 | 22.0 | 0.00 | 0.00 | 0.00 | 33 | 1017.0 |
| 20260502184558 | 60 | 181 | 10.0 | 20.0 | 0.00 | 0.00 | 0.00 | 33 | 1017.3 |
| 20260502183052 | 59 | 154 | 10.0 | 24.0 | 0.00 | 0.00 | 0.00 | 33 | 1017.5 |
| 20260502181552 | 59 | 200 | 5.0 | 21.0 | 0.00 | 0.00 | 0.00 | 34 | 1017.9 |
| 20260502163026 | 55 | 212 | 6.0 | 13.0 | 0.00 | 0.00 | 0.00 | 37 | 1019.6 |
| 20260502161522 | 55 | 192 | 7.0 | 18.0 | 0.00 | 0.00 | 0.00 | 37 | 1019.8 |
| 20260502151508 | 52 | 355 | 3.0 | 10.0 | 0.00 | 0.00 | 0.00 | 44 | 1020.4 |
| 20260502123027 | 38 | 227 | 0.0 | 2.0 | 0.00 | 0.00 | 0.00 | 72 | 1021.1 |
| 20260502121517 | 36 | 227 | 0.0 | 0.0 | 0.00 | 0.00 | 0.00 | 73 | 1021.1 |
| 20260502114515 | 35 | 227 | 0.0 | 0.0 | 0.00 | 0.00 | 0.00 | 75 | 1021.1 |
| 20260502113014 | 34 | 227 | 0.0 | 0.0 | 0.00 | 0.00 | 0.00 | 74 | 1021.1 |
| 20260502111549 | 34 | 227 | 0.0 | 0.0 | 0.00 | 0.00 | 0.00 | 74 | 1020.9 |
| 20260502110042 | 34 | 228 | 0.0 | 0.0 | 0.00 | 0.00 | 0.00 | 74 | 1020.9 |
| 20260502104540 | 34 | 228 | 0.0 | 0.0 | 0.00 | 0.00 | 0.00 | 74 | 1020.8 |
| 20260502103039 | 34 | 228 | 0.0 | 0.0 | 0.00 | 0.00 | 0.00 | 74 | 1020.9 |
| 20260502101537 | 34 | 228 | 0.0 | 0.0 | 0.00 | 0.00 | 0.00 | 72 | 1020.9 |
| 20260502071512 | 37 | 228 | 0.0 | 0.0 | 0.00 | 0.00 | 0.00 | 66 | 1020.8 |
| 20260502070015 | 37 | 228 | 0.0 | 0.0 | 0.00 | 0.00 | 0.00 | 66 | 1020.8 |
| 20260502064515 | 37 | 228 | 0.0 | 0.0 | 0.00 | 0.00 | 0.00 | 67 | 1020.8 |
| 20260502063009 | 37 | 228 | 0.0 | 0.0 | 0.00 | 0.00 | 0.00 | 66 | 1020.9 |
| 20260502061505 | 37 | 228 | 0.0 | 0.0 | 0.00 | 0.00 | 0.00 | 65 | 1021.0 |
| 20260502060004 | 38 | 228 | 0.0 | 0.0 | 0.00 | 0.00 | 0.00 | 65 | 1021.0 |
| 20260502054534 | 38 | 228 | 0.0 | 0.0 | 0.00 | 0.00 | 0.00 | 64 | 1021.0 |
| 20260502053040 | 38 | 228 | 0.0 | 0.0 | 0.00 | 0.00 | 0.00 | 64 | 1021.0 |
| 20260502051601 | 38 | 228 | 0.0 | 0.0 | 0.00 | 0.00 | 0.00 | 64 | 1021.0 |
| 20260502050030 | 39 | 228 | 0.0 | 0.0 | 0.00 | 0.00 | 0.00 | 62 | 1021.0 |
| 20260502044529 | 39 | 228 | 0.0 | 0.0 | 0.00 | 0.00 | 0.00 | 60 | 1020.9 |
| 20260502043029 | 39 | 228 | 0.0 | 0.0 | 0.00 | 0.00 | 0.00 | 61 | 1020.9 |
| 20260502041529 | 40 | 228 | 0.0 | 0.0 | 0.00 | 0.00 | 0.00 | 58 | 1020.9 |
| 20260502040026 | 41 | 228 | 0.0 | 0.0 | 0.00 | 0.00 | 0.00 | 57 | 1021.0 |
| 20260502034526 | 41 | 228 | 0.0 | 0.0 | 0.00 | 0.00 | 0.00 | 55 | 1021.0 |
| 20260502033026 | 42 | 228 | 0.0 | 0.0 | 0.00 | 0.00 | 0.00 | 52 | 1021.0 |
| 20260502031522 | 43 | 228 | 0.0 | 0.0 | 0.00 | 0.00 | 0.00 | 49 | 1020.9 |
| 20260502030024 | 44 | 228 | 0.0 | 0.0 | 0.00 | 0.00 | 0.00 | 47 | 1021.0 |
| 20260502024520 | 45 | 228 | 0.0 | 0.0 | 0.00 | 0.00 | 0.00 | 45 | 1020.9 |
| 20260502023030 | 46 | 228 | 0.0 | 0.0 | 0.00 | 0.00 | 0.00 | 43 | 1020.9 |
| 20260502021550 | 47 | 228 | 0.0 | 0.0 | 0.00 | 0.00 | 0.00 | 40 | 1020.9 |
| 20260502020050 | 48 | 228 | 0.0 | 0.0 | 0.00 | 0.00 | 0.00 | 38 | 1020.6 |
| 20260502014519 | 49 | 228 | 0.0 | 1.0 | 0.00 | 0.00 | 0.00 | 35 | 1020.5 |
| 20260502013018 | 50 | 228 | 0.0 | 0.0 | 0.00 | 0.00 | 0.00 | 34 | 1020.3 |
| 20260502011516 | 51 | 228 | 0.0 | 4.0 | 0.00 | 0.00 | 0.00 | 32 | 1020.4 |
| 20260502010015 | 51 | 226 | 0.0 | 5.0 | 0.00 | 0.00 | 0.00 | 32 | 1020.3 |
| 20260502004514 | 52 | 281 | 0.0 | 4.0 | 0.00 | 0.00 | 0.00 | 31 | 1020.2 |
| 20260502003015 | 52 | 319 | 1.0 | 9.0 | 0.00 | 0.00 | 0.00 | 31 | 1020.3 |
| 20260502001612 | 52 | 321 | 0.0 | 5.0 | 0.00 | 0.00 | 0.00 | 31 | 1020.3 |
| 20260502000048 | 52 | 310 | 0.0 | 6.0 | 0.00 | 0.00 | 0.00 | 31 | 1020.4 |
| 20260501234541 | 52 | 339 | 3.0 | 10.0 | 0.00 | 0.00 | 0.00 | 32 | 1020.4 |
| 20260501233037 | 53 | 300 | 5.0 | 12.0 | 0.00 | 0.00 | 0.00 | 29 | 1020.3 |
| 20260501231549 | 53 | 9 | 4.0 | 10.0 | 0.00 | 0.00 | 0.00 | 28 | 1020.3 |
| 20260501231546 | 53 | 9 | 5.0 | 10.0 | 0.00 | 0.00 | 0.00 | 28 | 1020.3 |
| 20260501230039 | 53 | 5 | 4.0 | 13.0 | 0.00 | 0.00 | 0.00 | 28 | 1020.5 |
| 20260501224544 | 53 | 339 | 1.0 | 17.0 | 0.00 | 0.00 | 0.00 | 28 | 1020.4 |